Time;durP1;ratioP1;P1;durP2;ratioP2;P2;SDS_P1;SDS_P2;PMS_P1;PMS_P2;Temp;Humidity;BMP_temperature;BMP_pressure;BME280_temperature;BME280_humidity;BME280_pressure;Samples;Min_cycle;Max_cycle;Signal;HPM_P1;HPM_P2
2022/12/19 00:02:51;;;;;;;40.92;28.23;;;;;;;1.30;100.00;101617.47;10377453;28;20446;-70
2022/12/19 00:07:52;;;;;;;38.25;25.00;;;;;;;1.35;100.00;101620.66;10409824;28;20050;-70
2022/12/19 00:12:52;;;;;;;42.53;26.58;;;;;;;1.34;100.00;101614.47;10409341;28;20529;-70
2022/12/19 00:17:53;;;;;;;38.15;21.15;;;;;;;1.40;100.00;101610.44;10409401;28;20034;-70
2022/12/19 00:22:53;;;;;;;36.53;24.13;;;;;;;1.43;100.00;101596.84;10377284;28;20049;-70
2022/12/19 00:27:54;;;;;;;43.65;28.60;;;;;;;1.49;100.00;101603.53;10378309;28;20045;-70
2022/12/19 00:32:54;;;;;;;36.20;23.85;;;;;;;1.52;100.00;101577.44;10378139;28;20034;-69
2022/12/19 00:37:54;;;;;;;37.55;25.65;;;;;;;1.57;100.00;101582.44;10376757;28;20084;-69
2022/12/19 00:42:55;;;;;;;33.55;23.10;;;;;;;1.55;100.00;101553.19;10376062;28;20041;-69
2022/12/19 00:47:55;;;;;;;36.75;27.33;;;;;;;1.63;100.00;101589.97;10375085;28;20049;-69
2022/12/19 00:52:55;;;;;;;37.53;25.63;;;;;;;1.66;100.00;101539.00;10408199;28;20061;-69
2022/12/19 00:57:56;;;;;;;37.78;27.35;;;;;;;1.79;100.00;101546.84;10376063;28;20030;-70
2022/12/19 01:02:57;;;;;;;32.50;25.40;;;;;;;1.86;100.00;101540.03;10376371;28;20500;-70
2022/12/19 01:07:57;;;;;;;34.65;24.27;;;;;;;1.96;100.00;101530.28;10377415;28;20088;-70
2022/12/19 01:12:58;;;;;;;29.27;21.67;;;;;;;2.03;100.00;101535.97;10376185;28;20037;-70
2022/12/19 01:17:58;;;;;;;37.60;26.15;;;;;;;2.10;100.00;101523.78;10407174;28;20377;-70
2022/12/19 01:22:59;;;;;;;44.28;28.33;;;;;;;2.18;100.00;101523.19;10374698;28;20038;-70
2022/12/19 01:27:59;;;;;;;44.50;27.63;;;;;;;2.26;100.00;101513.53;10407200;28;20034;-70
2022/12/19 01:32:59;;;;;;;43.03;29.92;;;;;;;2.29;100.00;101499.91;10374488;28;20532;-70
2022/12/19 01:38:00;;;;;;;43.80;26.83;;;;;;;2.41;100.00;101503.38;10405705;28;20401;-70
2022/12/19 01:43:00;;;;;;;56.83;33.17;;;;;;;2.48;100.00;101495.69;10374748;28;20038;-70
2022/12/19 01:48:21;;;;;;;35.58;22.60;;;;;;;2.53;100.00;101497.00;10374673;28;20463;-70
2022/12/19 01:53:23;;;;;;;40.28;28.58;;;;;;;2.61;100.00;101482.97;10389136;28;20053;-72
2022/12/19 01:58:23;;;;;;;37.85;26.15;;;;;;;2.66;100.00;101475.41;10407428;28;20359;-72
2022/12/19 02:03:27;;;;;;;43.85;31.85;;;;;;;2.77;100.00;101471.78;10375810;28;20038;-73
2022/12/19 02:08:28;;;;;;;45.65;30.58;;;;;;;2.83;100.00;101457.06;10376591;28;20048;-71
2022/12/19 02:13:28;;;;;;;40.90;28.10;;;;;;;2.90;100.00;101439.47;10411979;28;20075;-71
2022/12/19 02:18:50;;;;;;;32.47;25.30;;;;;;;3.05;100.00;101423.91;10396505;28;20060;-71
2022/12/19 02:24:09;;;;;;;41.67;28.83;;;;;;;3.10;100.00;101411.81;10411163;28;20026;-72
2022/12/19 02:29:17;;;;;;;33.97;23.17;;;;;;;3.15;100.00;101400.69;10382326;28;20073;-71
2022/12/19 02:34:19;;;;;;;24.83;20.90;;;;;;;3.21;100.00;101392.13;10376196;28;20355;-71
2022/12/19 02:39:49;;;;;;;35.17;22.75;;;;;;;3.30;100.00;101393.97;10373986;28;20050;-71
2022/12/19 02:44:51;;;;;;;28.85;22.92;;;;;;;3.39;100.00;101385.13;10373469;28;20510;-71
2022/12/19 02:49:51;;;;;;;20.48;18.08;;;;;;;3.45;100.00;101386.41;10412629;28;20038;-71
2022/12/19 02:54:53;;;;;;;22.77;19.98;;;;;;;3.52;100.00;101376.81;10381729;28;20072;-71
2022/12/19 03:00:09;;;;;;;19.52;17.20;;;;;;;3.58;100.00;101378.94;10412188;28;20036;-71
2022/12/19 03:05:32;;;;;;;25.77;19.40;;;;;;;3.70;100.00;101375.16;10380229;28;20029;-71
2022/12/19 03:10:59;;;;;;;22.75;17.33;;;;;;;3.83;100.00;101380.22;10393722;28;20108;-71
2022/12/19 03:16:00;;;;;;;14.50;12.10;;;;;;;3.90;100.00;101378.66;10382096;28;20438;-71
2022/12/19 03:21:19;;;;;;;16.45;14.55;;;;;;;4.03;100.00;101374.84;10379445;28;20029;-71
2022/12/19 03:26:22;;;;;;;17.65;15.70;;;;;;;4.13;100.00;101372.97;10380413;28;20034;-71
2022/12/19 03:31:25;;;;;;;19.50;13.25;;;;;;;4.20;100.00;101355.31;10379075;28;20030;-71
2022/12/19 03:36:32;;;;;;;16.75;13.80;;;;;;;4.32;100.00;101358.69;10394323;28;20458;-71
2022/12/19 03:46:57;;;;;;;12.70;10.50;;;;;;;4.50;100.00;101362.31;10406219;28;20390;-71
2022/12/19 03:52:25;;;;;;;21.03;12.33;;;;;;;4.69;100.00;101349.78;10379516;28;20091;-71
2022/12/19 03:57:28;;;;;;;14.40;11.73;;;;;;;4.73;100.00;101354.72;10373082;28;20480;-72
2022/12/19 04:02:30;;;;;;;16.50;13.35;;;;;;;4.78;100.00;101333.63;10396607;28;20091;-72
2022/12/19 04:07:30;;;;;;;18.05;13.27;;;;;;;4.79;100.00;101337.19;10393338;28;20034;-71
2022/12/19 04:12:34;;;;;;;18.13;12.38;;;;;;;4.88;100.00;101338.94;10376843;28;20034;-71
2022/12/19 04:17:53;;;;;;;12.52;11.23;;;;;;;4.92;100.00;101335.00;10377480;28;20037;-71
2022/12/19 04:23:15;;;;;;;14.75;13.13;;;;;;;4.97;100.00;101335.38;10409140;28;20374;-72
2022/12/19 04:28:15;;;;;;;13.63;10.50;;;;;;;5.03;100.00;101329.41;10389831;28;20037;-71
2022/12/19 04:33:15;;;;;;;15.15;10.35;;;;;;;5.12;100.00;101311.56;10376981;28;20030;-71
2022/12/19 04:38:16;;;;;;;14.18;10.90;;;;;;;5.16;100.00;101317.47;10376095;28;20119;-71
2022/12/19 04:43:16;;;;;;;11.50;10.32;;;;;;;5.20;100.00;101326.91;10377213;28;20065;-70
2022/12/19 04:48:17;;;;;;;11.15;10.05;;;;;;;5.26;100.00;101329.81;10376631;28;20049;-72
2022/12/19 04:53:17;;;;;;;12.32;10.52;;;;;;;5.28;100.00;101325.16;10376567;28;20474;-70
2022/12/19 04:58:18;;;;;;;22.42;13.52;;;;;;;5.32;100.00;101299.66;10376100;28;20037;-71
2022/12/19 05:03:18;;;;;;;14.02;12.60;;;;;;;5.35;100.00;101294.00;10375904;28;20042;-71
2022/12/19 05:08:18;;;;;;;18.65;13.63;;;;;;;5.40;100.00;101316.88;10407512;28;20393;-71
2022/12/19 05:13:19;;;;;;;16.20;14.35;;;;;;;5.44;100.00;101305.66;10375863;28;20112;-70
2022/12/19 05:18:19;;;;;;;14.82;13.27;;;;;;;5.44;100.00;101297.59;10376018;28;20037;-71
2022/12/19 05:23:20;;;;;;;19.08;15.70;;;;;;;5.49;100.00;101297.16;10375788;28;20046;-70
2022/12/19 05:28:20;;;;;;;18.48;14.65;;;;;;;5.54;100.00;101302.88;10358809;28;20034;-71
2022/12/19 05:33:20;;;;;;;17.60;13.48;;;;;;;5.56;100.00;101319.72;10407780;28;20033;-70
2022/12/19 05:38:21;;;;;;;12.52;11.32;;;;;;;5.59;100.00;101311.34;10375080;28;20619;-70
2022/12/19 05:43:21;;;;;;;12.20;10.50;;;;;;;5.64;100.00;101319.75;10375912;28;20389;-70
2022/12/19 05:48:22;;;;;;;10.80;9.45;;;;;;;5.71;100.00;101303.84;10374037;28;20121;-70
2022/12/19 05:53:22;;;;;;;13.50;11.77;;;;;;;5.79;100.00;101285.13;10373861;28;20096;-70
2022/12/19 05:58:22;;;;;;;21.00;14.73;;;;;;;5.79;100.00;101306.63;10373736;28;20049;-70
2022/12/19 06:03:23;;;;;;;12.20;9.93;;;;;;;5.79;100.00;101303.94;10374858;28;20450;-70
2022/12/19 06:08:23;;;;;;;19.52;14.70;;;;;;;5.80;100.00;101308.31;10374898;28;20038;-69
2022/12/19 06:13:24;;;;;;;19.58;14.80;;;;;;;5.84;100.00;101298.94;10389252;28;20030;-68
2022/12/19 06:18:25;;;;;;;13.88;12.45;;;;;;;5.88;100.00;101299.47;10373973;28;20037;-69
2022/12/19 06:23:25;;;;;;;13.73;11.27;;;;;;;5.99;100.00;101293.84;10379660;28;20462;-69
2022/12/19 06:28:26;;;;;;;15.13;11.75;;;;;;;5.99;100.00;101302.75;10380550;28;20057;-69
2022/12/19 06:33:26;;;;;;;16.80;11.32;;;;;;;6.00;100.00;101282.13;10396687;28;20030;-69
2022/12/19 06:38:27;;;;;;;13.73;9.35;;;;;;;6.01;100.00;101303.44;10414455;28;20050;-69
2022/12/19 06:43:28;;;;;;;15.38;13.30;;;;;;;6.02;100.00;101305.13;10379814;28;20057;-69
2022/12/19 06:48:29;;;;;;;16.42;12.57;;;;;;;6.05;100.00;101302.13;10380182;28;20100;-68
2022/12/19 06:53:29;;;;;;;14.30;11.85;;;;;;;6.07;100.00;101304.69;10380812;28;20045;-69
2022/12/19 06:58:30;;;;;;;17.27;11.98;;;;;;;6.09;100.00;101312.56;10362250;28;20036;-69
2022/12/19 07:03:38;;;;;;;12.27;10.93;;;;;;;6.09;100.00;101324.16;10382398;28;20049;-70
2022/12/19 07:08:39;;;;;;;13.68;9.45;;;;;;;6.12;100.00;101313.09;10394973;28;20033;-69
2022/12/19 07:13:39;;;;;;;14.07;11.88;;;;;;;6.16;100.00;101330.63;10380267;28;20386;-69
2022/12/19 07:18:39;;;;;;;10.60;9.25;;;;;;;6.19;100.00;101306.09;10380575;28;20099;-69
2022/12/19 07:23:40;;;;;;;14.15;9.32;;;;;;;6.15;100.00;101315.47;10411684;28;20433;-69
2022/12/19 07:28:43;;;;;;;14.15;10.82;;;;;;;6.23;100.00;101339.72;10378274;28;20049;-69
2022/12/19 07:33:43;;;;;;;10.60;8.63;;;;;;;6.24;100.00;101344.09;10377435;28;20104;-69
2022/12/19 07:38:44;;;;;;;11.57;8.18;;;;;;;6.26;100.00;101342.09;10378703;28;20050;-68
2022/12/19 07:43:44;;;;;;;8.75;7.65;;;;;;;6.26;100.00;101338.56;10378721;28;20050;-69
2022/12/19 07:48:45;;;;;;;14.00;9.85;;;;;;;6.27;100.00;101354.53;10378404;28;20042;-69
2022/12/19 07:53:45;;;;;;;12.48;10.20;;;;;;;6.33;100.00;101346.84;10378651;28;20437;-69
2022/12/19 07:58:45;;;;;;;11.38;9.98;;;;;;;6.38;100.00;101358.84;10378132;28;20049;-69
2022/12/19 08:03:46;;;;;;;13.27;9.25;;;;;;;6.40;100.00;101362.19;10379476;28;20054;-68
2022/12/19 08:08:47;;;;;;;11.13;8.55;;;;;;;6.40;100.00;101366.72;10376328;28;20056;-69
2022/12/19 08:13:48;;;;;;;11.40;7.53;;;;;;;6.43;100.00;101377.16;10377207;28;20046;-68
2022/12/19 08:18:48;;;;;;;14.57;9.95;;;;;;;6.48;100.00;101372.16;10376834;28;20108;-69
2022/12/19 08:23:49;;;;;;;8.57;7.60;;;;;;;6.50;100.00;101370.97;10377764;28;20410;-69
2022/12/19 08:28:53;;;;;;;14.85;9.82;;;;;;;6.58;100.00;101378.28;10376140;28;20037;-69
2022/12/19 08:33:55;;;;;;;12.27;9.20;;;;;;;6.56;100.00;101379.44;10377086;28;20116;-69
2022/12/19 08:38:55;;;;;;;15.38;8.98;;;;;;;6.63;100.00;101375.94;10375280;28;20050;-69
2022/12/19 08:43:55;;;;;;;6.47;5.78;;;;;;;6.63;100.00;101373.25;10391708;28;20042;-69
2022/12/19 08:48:56;;;;;;;11.05;7.22;;;;;;;6.68;100.00;101362.00;10376411;28;20500;-69
2022/12/19 08:53:56;;;;;;;8.80;6.10;;;;;;;6.68;100.00;101367.41;10407300;28;20033;-68
2022/12/19 08:58:56;;;;;;;13.48;6.53;;;;;;;6.71;100.00;101359.00;10375874;28;20049;-68
2022/12/19 09:03:57;;;;;;;11.90;7.22;;;;;;;6.79;100.00;101372.47;10375626;28;20030;-69
2022/12/19 09:08:58;;;;;;;13.48;8.68;;;;;;;6.86;100.00;101375.38;10374134;28;20034;-68
2022/12/19 09:13:58;;;;;;;8.98;8.07;;;;;;;6.90;100.00;101382.13;10375070;28;20092;-69
2022/12/19 09:18:59;;;;;;;14.48;7.93;;;;;;;7.01;100.00;101397.97;10373917;28;20041;-69
2022/12/19 09:23:59;;;;;;;8.75;7.07;;;;;;;6.92;100.00;101388.19;10374585;28;20034;-68
2022/12/19 09:28:59;;;;;;;4.88;4.45;;;;;;;6.98;100.00;101392.91;10375164;28;20050;-69
2022/12/19 09:34:00;;;;;;;9.90;7.15;;;;;;;7.00;100.00;101396.31;10389994;28;20034;-69
2022/12/19 09:39:00;;;;;;;9.30;7.28;;;;;;;7.06;100.00;101392.13;10374547;28;20257;-69
2022/12/19 09:44:19;;;;;;;6.75;5.65;;;;;;;7.11;100.00;101390.63;10375692;28;20038;-69
2022/12/19 09:49:23;;;;;;;33.75;8.57;;;;;;;7.19;100.00;101390.66;10373903;28;20041;-69
2022/12/19 09:54:52;;;;;;;7.90;6.60;;;;;;;7.29;100.00;101393.22;10389920;28;20036;-69
2022/12/19 09:59:56;;;;;;;11.57;7.38;;;;;;;7.28;100.00;101398.78;10381937;28;20034;-68
2022/12/19 10:05:22;;;;;;;7.70;6.45;;;;;;;7.22;100.00;101393.03;10384142;28;20112;-68
2022/12/19 10:10:32;;;;;;;17.15;7.93;;;;;;;7.27;100.00;101386.28;10394688;28;20046;-68
2022/12/19 10:16:15;;;;;;;10.40;6.07;;;;;;;7.25;100.00;101396.41;10380995;28;20034;-68
2022/12/19 10:21:35;;;;;;;11.40;5.50;;;;;;;7.28;100.00;101385.31;10377379;28;20037;-68
2022/12/19 10:27:00;;;;;;;10.63;8.57;;;;;;;7.30;100.00;101411.06;10374095;28;20077;-69
2022/12/19 10:32:31;;;;;;;5.68;4.75;;;;;;;7.37;100.00;101389.69;10380144;28;20026;-68
2022/12/19 10:38:18;;;;;;;9.65;7.32;;;;;;;7.37;100.00;101384.28;10379978;28;20107;-68
2022/12/19 10:43:47;;;;;;;7.80;5.28;;;;;;;7.44;100.00;101386.19;10295096;28;20490;-68
2022/12/19 10:48:49;;;;;;;5.03;4.55;;;;;;;7.58;100.00;101378.44;10362751;28;20084;-68
2022/12/19 10:53:56;;;;;;;7.32;5.65;;;;;;;7.60;100.00;101358.41;10378719;28;20034;-69
2022/12/19 10:58:57;;;;;;;7.05;5.82;;;;;;;7.70;100.00;101374.44;10394659;28;20042;-70
2022/12/19 11:04:17;;;;;;;10.98;4.28;;;;;;;7.68;100.00;101374.59;10413005;28;20038;-70
2022/12/19 11:09:19;;;;;;;13.82;5.97;;;;;;;7.69;100.00;101378.97;10395483;28;20544;-69
2022/12/19 11:14:27;;;;;;;7.18;6.47;;;;;;;7.74;100.00;101366.84;10394938;28;20038;-70
2022/12/19 11:19:32;;;;;;;10.40;5.82;;;;;;;7.78;100.00;101377.13;10394767;28;20030;-70
2022/12/19 11:24:38;;;;;;;7.72;5.25;;;;;;;7.85;100.00;101370.06;10379329;28;20541;-69
2022/12/19 11:29:48;;;;;;;8.25;5.35;;;;;;;7.83;100.00;101363.16;10393562;28;20034;-68
2022/12/19 11:34:49;;;;;;;7.80;6.32;;;;;;;7.86;100.00;101373.59;10383672;28;20448;-68
2022/12/19 11:39:54;;;;;;;14.55;6.40;;;;;;;7.86;100.00;101360.13;10380949;28;20058;-69
2022/12/19 11:45:02;;;;;;;5.20;4.45;;;;;;;7.88;100.00;101355.38;10378765;28;20079;-69
2022/12/19 11:50:09;;;;;;;13.48;7.07;;;;;;;7.92;100.00;101362.97;10378610;28;20034;-68
2022/12/19 11:55:22;;;;;;;8.45;5.18;;;;;;;7.79;100.00;101348.31;10378901;28;20451;-69
2022/12/19 12:00:23;;;;;;;8.75;5.03;;;;;;;7.80;100.00;101344.63;10392062;28;20041;-68
2022/12/19 12:05:45;;;;;;;6.97;6.32;;;;;;;7.83;100.00;101341.59;10377148;28;20037;-69
2022/12/19 12:11:07;;;;;;;8.95;6.63;;;;;;;7.89;100.00;101324.72;10409727;28;20078;-68
2022/12/19 12:16:10;;;;;;;7.22;6.30;;;;;;;8.02;100.00;101318.81;10375385;28;20057;-69
2022/12/19 12:21:23;;;;;;;9.55;7.15;;;;;;;8.11;100.00;101315.94;10376020;28;20040;-68
2022/12/19 12:26:30;;;;;;;11.15;7.35;;;;;;;8.00;100.00;101310.88;10376969;28;20041;-68
2022/12/19 12:31:48;;;;;;;5.07;4.65;;;;;;;8.04;100.00;101312.25;10358869;28;20030;-68
2022/12/19 12:37:07;;;;;;;7.68;5.13;;;;;;;8.05;100.00;101299.59;10377032;28;20462;-68
2022/12/19 12:42:28;;;;;;;10.82;4.38;;;;;;;7.94;100.00;101295.38;10376168;28;20049;-69
2022/12/19 12:47:29;;;;;;;7.97;5.07;;;;;;;7.89;100.00;101274.34;10358860;28;20030;-68
2022/12/19 12:52:46;;;;;;;5.78;5.10;;;;;;;7.88;100.00;101277.19;10376033;28;20033;-68
2022/12/19 12:57:47;;;;;;;7.55;4.32;;;;;;;7.87;100.00;101270.13;10408564;28;20085;-69
2022/12/19 13:03:10;;;;;;;5.38;4.88;;;;;;;7.91;100.00;101260.66;10390923;28;20084;-69
2022/12/19 13:08:26;;;;;;;5.65;5.15;;;;;;;8.02;100.00;101252.22;10391368;28;20053;-69
2022/12/19 13:13:49;;;;;;;7.05;4.53;;;;;;;8.09;100.00;101241.59;10375814;28;20117;-70
2022/12/19 13:19:13;;;;;;;9.48;6.03;;;;;;;8.12;100.00;101236.69;10377435;28;20048;-69
2022/12/19 13:24:18;;;;;;;9.88;5.45;;;;;;;8.20;100.00;101234.97;10378819;28;20413;-70
2022/12/19 13:29:30;;;;;;;7.75;4.30;;;;;;;8.26;100.00;101237.81;10380901;28;20053;-70
2022/12/19 13:34:35;;;;;;;5.22;4.25;;;;;;;8.25;100.00;101227.22;10380312;28;20029;-70
2022/12/19 13:39:46;;;;;;;5.75;5.10;;;;;;;8.26;100.00;101231.56;10377979;28;20061;-70
2022/12/19 13:44:46;;;;;;;5.07;4.57;;;;;;;8.33;100.00;101219.09;10375527;28;20030;-69
2022/12/19 13:49:46;;;;;;;5.45;3.42;;;;;;;8.36;100.00;101230.38;10374751;28;20073;-69
2022/12/19 13:54:49;;;;;;;7.47;4.72;;;;;;;8.41;100.00;101229.03;10373470;28;20030;-69
2022/12/19 13:59:49;;;;;;;7.30;4.88;;;;;;;8.48;100.00;101222.75;10357011;28;20382;-69
2022/12/19 14:04:49;;;;;;;11.93;4.40;;;;;;;8.45;100.00;101223.09;10405077;28;20118;-69
2022/12/19 14:09:50;;;;;;;6.45;4.22;;;;;;;8.55;100.00;101206.69;10389384;28;20084;-70
2022/12/19 14:20:21;;;;;;;3.85;3.55;;;;;;;8.60;100.00;101226.75;10386288;28;20045;-69
2022/12/19 14:25:22;;;;;;;7.45;4.75;;;;;;;8.56;100.00;101249.72;10372373;28;20041;-69
2022/12/19 14:30:24;;;;;;;9.35;4.55;;;;;;;8.53;100.00;101252.75;10372274;28;20096;-69
2022/12/19 14:35:26;;;;;;;3.53;3.25;;;;;;;8.55;100.00;101261.53;10388248;28;20030;-69
2022/12/19 14:40:31;;;;;;;10.68;5.05;;;;;;;8.56;100.00;101219.19;10390270;28;20086;-69
2022/12/19 14:45:37;;;;;;;10.02;5.30;;;;;;;8.60;100.00;101234.00;10379092;28;20457;-70
2022/12/19 14:50:37;;;;;;;6.33;2.97;;;;;;;8.46;100.00;101250.94;10412360;28;20395;-70
2022/12/19 14:55:38;;;;;;;3.35;3.15;;;;;;;8.52;100.00;101252.91;10379707;28;20030;-72
2022/12/19 15:00:46;;;;;;;5.90;2.90;;;;;;;8.51;100.00;101246.69;10412873;28;20053;-70
2022/12/19 15:05:47;;;;;;;4.68;4.28;;;;;;;8.55;100.00;101225.56;10395574;28;20033;-71
2022/12/19 15:10:47;;;;;;;7.13;4.40;;;;;;;8.55;100.00;101237.25;10411709;28;20038;-70
2022/12/19 15:15:58;;;;;;;11.55;5.07;;;;;;;8.48;100.00;101225.44;10379661;28;20466;-70
2022/12/19 15:21:03;;;;;;;10.82;4.90;;;;;;;8.53;100.00;101206.88;10395124;28;20033;-71
2022/12/19 15:26:11;;;;;;;4.90;4.35;;;;;;;8.44;100.00;101205.22;10379260;28;20041;-71
2022/12/19 15:31:33;;;;;;;6.55;3.80;;;;;;;8.33;100.00;101217.22;10379090;28;20072;-70
2022/12/19 15:36:33;;;;;;;5.80;3.42;;;;;;;8.41;100.00;101212.84;10379364;28;20065;-71
2022/12/19 15:41:34;;;;;;;5.50;3.55;;;;;;;8.46;100.00;101205.06;10410906;28;20093;-72
2022/12/19 15:46:34;;;;;;;10.52;5.22;;;;;;;8.55;100.00;101212.94;10378242;28;20037;-70
2022/12/19 15:51:34;;;;;;;3.72;3.42;;;;;;;8.56;100.00;101203.00;10378402;28;20034;-70
2022/12/19 15:56:39;;;;;;;3.15;2.95;;;;;;;8.55;100.00;101198.59;10408616;28;20429;-70
2022/12/19 16:01:40;;;;;;;4.35;3.80;;;;;;;8.51;100.00;101216.16;10392382;28;20402;-70
2022/12/19 16:06:40;;;;;;;4.70;3.50;;;;;;;8.56;100.00;101221.88;10377191;28;20030;-71
2022/12/19 16:11:41;;;;;;;4.03;3.60;;;;;;;8.65;100.00;101222.66;10393726;28;20030;-69
2022/12/19 16:16:41;;;;;;;6.90;4.28;;;;;;;8.60;100.00;101205.13;10376862;28;20488;-72
2022/12/19 16:21:41;;;;;;;4.22;3.53;;;;;;;8.63;100.00;101200.41;10376371;28;20454;-70
2022/12/19 16:26:42;;;;;;;7.82;4.63;;;;;;;8.74;100.00;101192.75;10377084;28;20390;-70
2022/12/19 16:31:42;;;;;;;10.52;4.50;;;;;;;8.64;100.00;101199.38;10377438;28;20042;-69
2022/12/19 16:36:43;;;;;;;3.88;3.28;;;;;;;8.54;100.00;101194.22;10391587;28;20084;-69
2022/12/19 16:41:44;;;;;;;6.38;3.33;;;;;;;8.40;100.00;101173.38;10408184;28;20124;-70
2022/12/19 16:46:44;;;;;;;3.60;2.92;;;;;;;8.32;100.00;101185.84;10408018;28;20056;-69
2022/12/19 16:51:46;;;;;;;4.47;3.75;;;;;;;8.36;100.00;101187.19;10376326;28;20124;-69
2022/12/19 16:56:48;;;;;;;5.75;4.05;;;;;;;8.36;100.00;101138.63;10358271;28;20368;-69
2022/12/19 17:01:49;;;;;;;3.08;2.88;;;;;;;8.33;100.00;101198.34;10375060;28;20462;-69
2022/12/19 17:06:50;;;;;;;4.47;3.65;;;;;;;8.37;100.00;101209.63;10391567;28;20049;-70
2022/12/19 17:11:54;;;;;;;6.75;4.35;;;;;;;8.31;100.00;101210.31;10375233;28;20030;-69
2022/12/19 17:16:56;;;;;;;4.53;4.20;;;;;;;8.33;100.00;101219.94;10373964;28;20244;-69
2022/12/19 17:21:56;;;;;;;5.75;3.60;;;;;;;8.23;100.00;101207.66;10390699;28;20030;-69
2022/12/19 17:26:57;;;;;;;4.47;3.80;;;;;;;8.21;100.00;101217.78;10374907;28;20466;-69
2022/12/19 17:31:57;;;;;;;5.93;4.13;;;;;;;8.21;100.00;101215.94;10373734;28;20080;-70
2022/12/19 17:36:59;;;;;;;5.38;3.55;;;;;;;8.24;100.00;101212.03;10407096;28;20038;-69
2022/12/19 17:42:14;;;;;;;6.60;4.47;;;;;;;8.28;100.00;101216.06;10373368;28;20188;-69
2022/12/19 17:47:15;;;;;;;3.75;3.45;;;;;;;8.31;100.00;101224.66;10373846;28;20065;-69
2022/12/19 17:52:16;;;;;;;3.63;3.30;;;;;;;8.32;100.00;101212.81;10373719;28;20038;-70
2022/12/19 17:57:18;;;;;;;7.03;4.78;;;;;;;8.49;100.00;101224.44;10374855;28;20030;-69
2022/12/19 18:02:22;;;;;;;12.15;5.30;;;;;;;8.58;100.00;101217.13;10374419;28;20030;-69
2022/12/19 18:07:23;;;;;;;5.18;3.78;;;;;;;8.53;100.00;101217.66;10388983;28;20038;-69
2022/12/19 18:12:23;;;;;;;4.07;3.30;;;;;;;8.50;100.00;101227.97;10374128;28;20037;-69
2022/12/19 18:17:24;;;;;;;5.35;4.55;;;;;;;8.58;100.00;101220.69;10374786;28;20066;-69
2022/12/19 18:22:24;;;;;;;5.00;4.47;;;;;;;8.48;100.00;101203.84;10382618;28;20034;-69
2022/12/19 18:27:25;;;;;;;3.60;3.30;;;;;;;8.51;100.00;101194.56;10380551;28;20484;-69
2022/12/19 18:32:25;;;;;;;8.38;4.93;;;;;;;8.50;100.00;101207.22;10381522;28;20045;-69
2022/12/19 18:37:26;;;;;;;5.70;5.13;;;;;;;8.44;100.00;101221.44;10414100;28;20045;-68
2022/12/19 18:42:26;;;;;;;6.00;4.10;;;;;;;8.43;100.00;101230.53;10380259;28;20057;-68
2022/12/19 18:47:26;;;;;;;25.08;5.95;;;;;;;8.44;100.00;101248.41;10382658;28;20347;-68
2022/12/19 18:52:27;;;;;;;12.65;4.35;;;;;;;8.46;100.00;101243.69;10379562;28;20119;-68
2022/12/19 18:57:27;;;;;;;5.85;3.35;;;;;;;8.50;100.00;101225.28;10380855;28;20034;-68
2022/12/19 19:02:27;;;;;;;16.65;4.78;;;;;;;8.70;100.00;101236.47;10381613;28;20120;-68
2022/12/19 19:07:28;;;;;;;6.13;4.90;;;;;;;8.92;100.00;101243.78;10381171;28;20382;-69
2022/12/19 19:12:29;;;;;;;9.73;4.13;;;;;;;8.99;100.00;101252.84;10411718;28;20060;-69
2022/12/19 19:17:30;;;;;;;6.13;4.50;;;;;;;8.96;100.00;101241.56;10381441;28;20041;-68
2022/12/19 19:22:31;;;;;;;7.15;4.93;;;;;;;8.95;100.00;101262.31;10387999;28;20033;-69
2022/12/19 19:27:31;;;;;;;6.93;5.38;;;;;;;8.99;100.00;101271.75;10365027;28;20044;-69
2022/12/19 19:32:31;;;;;;;5.15;4.25;;;;;;;8.96;100.00;101261.31;10380582;28;20421;-68
2022/12/19 19:37:32;;;;;;;24.13;7.22;;;;;;;9.00;100.00;101251.84;10411586;28;20042;-69
2022/12/19 19:42:32;;;;;;;10.75;5.72;;;;;;;9.06;100.00;101255.66;10376711;28;20578;-68
2022/12/19 19:47:36;;;;;;;7.22;4.32;;;;;;;9.01;100.00;101263.47;10378607;28;20030;-69
2022/12/19 19:52:39;;;;;;;7.43;4.13;;;;;;;8.98;100.00;101261.97;10378547;28;20038;-69
2022/12/19 19:57:39;;;;;;;6.05;4.28;;;;;;;9.06;100.00;101267.34;10377449;28;20048;-69
2022/12/19 20:02:40;;;;;;;5.75;4.50;;;;;;;9.00;100.00;101275.31;10378585;28;20042;-68
2022/12/19 20:07:40;;;;;;;8.63;5.28;;;;;;;9.01;100.00;101277.81;10379358;28;20117;-70
2022/12/19 20:12:41;;;;;;;11.57;5.03;;;;;;;9.07;100.00;101255.50;10377926;28;20038;-70
2022/12/19 20:17:41;;;;;;;11.93;4.57;;;;;;;9.05;100.00;101264.81;10377263;28;20358;-68
2022/12/19 20:22:41;;;;;;;6.82;5.45;;;;;;;9.19;100.00;101257.78;10377256;28;20255;-69
2022/12/19 20:27:42;;;;;;;5.22;4.72;;;;;;;9.29;100.00;101263.81;10376547;28;20120;-68
2022/12/19 20:32:42;;;;;;;8.35;4.35;;;;;;;9.32;100.00;101263.44;10378705;28;20045;-69
2022/12/19 20:37:43;;;;;;;10.75;4.43;;;;;;;9.44;100.00;101266.53;10377870;28;20038;-69
2022/12/19 20:42:43;;;;;;;7.93;5.20;;;;;;;9.40;100.00;101273.34;10376456;28;20502;-68
2022/12/19 20:47:44;;;;;;;8.35;4.95;;;;;;;9.41;100.00;101262.38;10378476;28;20076;-69
2022/12/19 20:52:44;;;;;;;5.18;4.72;;;;;;;9.43;100.00;101244.09;10392889;28;20065;-67
2022/12/19 20:57:45;;;;;;;4.68;4.25;;;;;;;9.47;100.00;101258.06;10376083;28;20061;-67
2022/12/19 21:02:45;;;;;;;5.53;4.00;;;;;;;9.47;100.00;101249.97;10407786;28;20042;-67
2022/12/19 21:07:46;;;;;;;5.35;3.75;;;;;;;9.53;100.00;101258.19;10375780;28;20319;-67
2022/12/19 21:12:46;;;;;;;11.75;3.58;;;;;;;9.62;100.00;101263.53;10375774;28;20474;-67
2022/12/19 21:17:46;;;;;;;7.50;3.70;;;;;;;9.62;100.00;101258.97;10375036;28;20059;-68
2022/12/19 21:22:47;;;;;;;4.32;3.92;;;;;;;9.51;100.00;101257.53;10408824;28;20042;-69
2022/12/19 21:27:47;;;;;;;4.70;3.90;;;;;;;9.43;100.00;101265.72;10378237;28;20378;-68
2022/12/19 21:32:47;;;;;;;3.72;3.42;;;;;;;9.40;100.00;101262.53;10374066;28;20041;-68
2022/12/19 21:37:51;;;;;;;7.43;3.47;;;;;;;9.38;100.00;101284.34;10374479;28;20068;-69
2022/12/19 21:42:51;;;;;;;3.58;3.05;;;;;;;9.26;100.00;101248.78;10374233;28;20054;-68
2022/12/19 21:47:52;;;;;;;4.15;3.85;;;;;;;9.39;100.00;101263.56;10372723;28;20042;-69
2022/12/19 21:52:52;;;;;;;3.92;3.63;;;;;;;9.29;100.00;101269.22;10373009;28;20061;-69
2022/12/19 21:57:52;;;;;;;9.27;4.25;;;;;;;9.44;100.00;101267.38;10373118;28;20029;-69
2022/12/19 22:02:53;;;;;;;4.40;3.95;;;;;;;9.48;100.00;101249.81;10373569;28;20069;-69
2022/12/19 22:07:53;;;;;;;3.20;2.90;;;;;;;9.53;100.00;101241.97;10371968;28;20041;-68
2022/12/19 22:12:54;;;;;;;11.30;4.65;;;;;;;9.51;100.00;101230.50;10404450;28;20037;-69
2022/12/19 22:17:54;;;;;;;5.00;4.38;;;;;;;9.46;100.00;101226.66;10374003;28;20386;-70
2022/12/19 22:22:54;;;;;;;3.92;3.53;;;;;;;9.46;100.00;101227.50;10374074;28;20120;-68
2022/12/19 22:27:55;;;;;;;11.70;5.00;;;;;;;9.55;100.00;101209.34;10371662;28;20492;-68
2022/12/19 22:32:55;;;;;;;6.78;3.92;;;;;;;9.54;100.00;101226.63;10372758;28;20148;-68
2022/12/19 22:37:56;;;;;;;6.40;4.13;;;;;;;9.54;100.00;101203.13;10403566;28;20038;-68
2022/12/19 22:42:56;;;;;;;6.88;3.17;;;;;;;9.48;100.00;101203.84;10335166;28;1095678;-68
2022/12/19 22:47:57;;;;;;;9.55;4.38;;;;;;;9.60;100.00;101211.50;10374923;28;20042;-69
2022/12/19 22:52:57;;;;;;;5.68;4.05;;;;;;;9.53;100.00;101212.22;10374927;28;20068;-69
2022/12/19 22:57:57;;;;;;;6.15;3.63;;;;;;;9.37;100.00;101217.78;10376785;28;20070;-69
2022/12/19 23:02:58;;;;;;;7.03;4.78;;;;;;;9.47;100.00;101218.34;10378768;28;20041;-69
2022/12/19 23:07:58;;;;;;;3.42;3.15;;;;;;;9.44;100.00;101213.31;10382635;28;20038;-71
2022/12/19 23:12:58;;;;;;;6.35;2.90;;;;;;;9.37;100.00;101220.47;10381854;28;20356;-70
2022/12/19 23:17:59;;;;;;;4.13;3.42;;;;;;;9.40;100.00;101212.00;10381964;28;20462;-68